Time;durP1;ratioP1;P1;durP2;ratioP2;P2;SDS_P1;SDS_P2;PMS_P1;PMS_P2;Temp;Humidity;BMP_temperature;BMP_pressure;BME280_temperature;BME280_humidity;BME280_pressure;Samples;Min_cycle;Max_cycle;Signal;HPM_P1;HPM_P2
2023/05/23 00:01:53;;;;;;;5.78;2.92;;;;;;;;;;5028561;28;20392;-78
2023/05/23 00:04:19;;;;;;;5.88;3.70;;;;;;;;;;5026389;28;20512;-78
2023/05/23 00:06:49;;;;;;;5.88;3.13;;;;;;;;;;5026362;28;20034;-78
2023/05/23 00:09:15;;;;;;;7.65;3.60;;;;;;;;;;5025087;28;20029;-77
2023/05/23 00:11:43;;;;;;;5.10;3.45;;;;;;;;;;5025589;28;20041;-77
2023/05/23 00:14:10;;;;;;;6.18;3.50;;;;;;;;;;5026325;28;20514;-79
2023/05/23 00:16:40;;;;;;;6.85;3.53;;;;;;;;;;5026202;28;20397;-79
2023/05/23 00:19:05;;;;;;;6.68;3.55;;;;;;;;;;5027667;28;20137;-78
2023/05/23 00:21:31;;;;;;;6.25;3.28;;;;;;;;;;5025725;28;20069;-77
2023/05/23 00:23:57;;;;;;;6.22;3.42;;;;;;;;;;5031007;28;20038;-78
2023/05/23 00:26:23;;;;;;;6.47;3.58;;;;;;;;;;5027556;28;20451;-78
2023/05/23 00:28:48;;;;;;;8.20;3.88;;;;;;;;;;5034231;28;20026;-77
2023/05/23 00:31:13;;;;;;;5.82;3.63;;;;;;;;;;5024062;28;20519;-78
2023/05/23 00:33:38;;;;;;;6.68;3.67;;;;;;;;;;5027659;28;20558;-77
2023/05/23 00:36:04;;;;;;;11.13;4.30;;;;;;;;;;5027355;28;20507;-78
2023/05/23 00:38:30;;;;;;;7.15;3.63;;;;;;;;;;5023569;28;20034;-78
2023/05/23 00:40:55;;;;;;;7.65;3.83;;;;;;;;;;5025950;28;20033;-77
2023/05/23 00:43:21;;;;;;;6.63;3.83;;;;;;;;;;5022749;28;20508;-78
2023/05/23 00:45:47;;;;;;;6.32;4.32;;;;;;;;;;5034109;28;20131;-79
2023/05/23 00:48:13;;;;;;;6.22;3.83;;;;;;;;;;5023522;28;20029;-79
2023/05/23 00:50:39;;;;;;;5.60;3.78;;;;;;;;;;5009168;28;20589;-79
2023/05/23 00:53:04;;;;;;;7.55;3.28;;;;;;;;;;5025676;28;20038;-79
2023/05/23 00:55:30;;;;;;;6.90;4.00;;;;;;;;;;5025235;28;20028;-78
2023/05/23 00:57:56;;;;;;;6.82;4.10;;;;;;;;;;5022508;28;20037;-77
2023/05/23 01:00:24;;;;;;;7.10;4.00;;;;;;;;;;5023877;28;20030;-77
2023/05/23 01:02:50;;;;;;;7.05;3.78;;;;;;;;;;5024542;28;20031;-78
2023/05/23 01:05:21;;;;;;;6.35;3.83;;;;;;;;;;5026771;28;20507;-77
2023/05/23 01:07:47;;;;;;;6.13;3.50;;;;;;;;;;5024980;28;20033;-79
2023/05/23 01:10:13;;;;;;;5.82;3.97;;;;;;;;;;5008068;28;20037;-79
2023/05/23 01:12:45;;;;;;;5.82;3.92;;;;;;;;;;5026962;28;20501;-79
2023/05/23 01:15:12;;;;;;;6.63;3.80;;;;;;;;;;5023998;28;20038;-78
2023/05/23 01:17:40;;;;;;;7.85;4.50;;;;;;;;;;5025931;28;20048;-78
2023/05/23 01:20:09;;;;;;;8.98;5.00;;;;;;;;;;5027172;28;20026;-79
2023/05/23 01:22:50;;;;;;;6.10;4.00;;;;;;;;;;5026975;28;20032;-78
2023/05/23 01:25:27;;;;;;;8.38;4.28;;;;;;;;;;5025632;28;20048;-77
2023/05/23 01:27:55;;;;;;;8.68;4.85;;;;;;;;;;5028062;28;20495;-78
2023/05/23 01:30:22;;;;;;;10.73;5.60;;;;;;;;;;5026832;28;20101;-78
2023/05/23 01:32:49;;;;;;;9.43;5.43;;;;;;;;;;5024048;28;20025;-78
2023/05/23 01:35:18;;;;;;;7.55;4.18;;;;;;;;;;5029124;28;20112;-78
2023/05/23 01:37:44;;;;;;;8.93;5.10;;;;;;;;;;5058680;28;20091;-78
2023/05/23 01:40:09;;;;;;;5.50;4.13;;;;;;;;;;5023402;28;20092;-78
2023/05/23 01:42:35;;;;;;;12.68;5.40;;;;;;;;;;5024994;28;20475;-78
2023/05/23 01:45:00;;;;;;;8.05;5.32;;;;;;;;;;5023795;28;20034;-78
2023/05/23 01:47:25;;;;;;;6.82;4.32;;;;;;;;;;5026387;28;20508;-78
2023/05/23 01:49:51;;;;;;;7.20;4.22;;;;;;;;;;5022295;28;20030;-77
2023/05/23 01:52:17;;;;;;;7.63;5.60;;;;;;;;;;5024293;28;20044;-78
2023/05/23 01:54:43;;;;;;;7.55;4.80;;;;;;;;;;5023094;28;20022;-78
2023/05/23 01:57:09;;;;;;;7.18;4.43;;;;;;;;;;5029963;28;20033;-78
2023/05/23 01:59:34;;;;;;;6.57;4.72;;;;;;;;;;5020861;28;20037;-77
2023/05/23 02:02:00;;;;;;;6.15;3.92;;;;;;;;;;5040559;28;20031;-78
2023/05/23 02:04:26;;;;;;;6.38;4.25;;;;;;;;;;5025372;28;20026;-78
2023/05/23 02:06:51;;;;;;;6.80;4.78;;;;;;;;;;5026201;28;20053;-78
2023/05/23 02:09:17;;;;;;;6.80;4.30;;;;;;;;;;5026160;28;20026;-78
2023/05/23 02:11:43;;;;;;;8.35;4.57;;;;;;;;;;5024691;28;20122;-78
2023/05/23 02:14:09;;;;;;;7.20;4.30;;;;;;;;;;5029999;28;20104;-77
2023/05/23 02:16:35;;;;;;;8.70;4.20;;;;;;;;;;5033889;28;20037;-77
2023/05/23 02:19:00;;;;;;;8.65;4.22;;;;;;;;;;5024992;28;20030;-78
2023/05/23 02:21:26;;;;;;;8.32;5.05;;;;;;;;;;5033551;28;20559;-78
2023/05/23 02:23:51;;;;;;;8.95;5.22;;;;;;;;;;5028257;28;20033;-77
2023/05/23 02:26:17;;;;;;;8.27;5.28;;;;;;;;;;5025615;28;20049;-78
2023/05/23 02:28:42;;;;;;;7.93;5.03;;;;;;;;;;5028543;28;20022;-78
2023/05/23 02:31:07;;;;;;;7.50;4.47;;;;;;;;;;5027379;28;20063;-78
2023/05/23 02:33:33;;;;;;;8.23;4.45;;;;;;;;;;5025610;28;20041;-77
2023/05/23 02:35:58;;;;;;;8.40;4.35;;;;;;;;;;5029086;28;20087;-78
2023/05/23 02:38:25;;;;;;;6.72;4.53;;;;;;;;;;5028867;28;20116;-76
2023/05/23 02:40:52;;;;;;;6.70;4.43;;;;;;;;;;5027594;28;20044;-78
2023/05/23 02:43:18;;;;;;;9.57;4.75;;;;;;;;;;5017942;28;20025;-78
2023/05/23 02:45:43;;;;;;;8.75;5.15;;;;;;;;;;5026167;28;20025;-77
2023/05/23 02:48:08;;;;;;;6.63;4.63;;;;;;;;;;5031171;28;20026;-78
2023/05/23 02:50:33;;;;;;;6.05;4.30;;;;;;;;;;5026593;28;20065;-78
2023/05/23 02:52:59;;;;;;;7.85;4.10;;;;;;;;;;5025907;28;20038;-78
2023/05/23 02:55:24;;;;;;;9.25;3.75;;;;;;;;;;5029045;28;20079;-78
2023/05/23 02:57:50;;;;;;;6.22;4.18;;;;;;;;;;5030751;28;20060;-78
2023/05/23 03:00:16;;;;;;;5.60;3.80;;;;;;;;;;5024812;28;20034;-78
2023/05/23 03:02:46;;;;;;;7.53;3.65;;;;;;;;;;5026915;28;20041;-78
2023/05/23 03:05:11;;;;;;;6.25;4.32;;;;;;;;;;5025412;28;20034;-78
2023/05/23 03:07:36;;;;;;;6.25;3.80;;;;;;;;;;5031059;28;20060;-78
2023/05/23 03:10:02;;;;;;;5.72;3.67;;;;;;;;;;5034850;28;20404;-78
2023/05/23 03:12:28;;;;;;;5.15;3.25;;;;;;;;;;5027936;28;20021;-78
2023/05/23 03:14:53;;;;;;;5.28;3.45;;;;;;;;;;5007524;28;20036;-78
2023/05/23 03:17:18;;;;;;;6.10;3.75;;;;;;;;;;5028411;28;20053;-78
2023/05/23 03:19:43;;;;;;;6.45;3.50;;;;;;;;;;5034641;28;20030;-78
2023/05/23 03:22:09;;;;;;;5.60;3.35;;;;;;;;;;5024969;28;20121;-78
2023/05/23 03:24:34;;;;;;;5.38;3.90;;;;;;;;;;5032009;28;20065;-77
2023/05/23 03:27:00;;;;;;;5.50;3.38;;;;;;;;;;5028377;28;20034;-79
2023/05/23 03:29:26;;;;;;;8.07;3.47;;;;;;;;;;5024133;28;20491;-78
2023/05/23 03:31:51;;;;;;;5.03;3.53;;;;;;;;;;5033892;23;20070;-78
2023/05/23 03:34:17;;;;;;;5.20;3.28;;;;;;;;;;5033178;28;20100;-78
2023/05/23 03:36:42;;;;;;;7.35;3.50;;;;;;;;;;5032979;28;20116;-78
2023/05/23 03:39:07;;;;;;;5.53;3.42;;;;;;;;;;5032502;28;20040;-77
2023/05/23 03:41:33;;;;;;;5.68;3.55;;;;;;;;;;5015268;28;20566;-77
2023/05/23 03:43:59;;;;;;;5.80;3.65;;;;;;;;;;5033047;28;20104;-77
2023/05/23 03:46:25;;;;;;;5.55;3.50;;;;;;;;;;5006593;28;20399;-78
2023/05/23 03:48:50;;;;;;;5.22;3.85;;;;;;;;;;5014775;28;20029;-77
2023/05/23 03:51:16;;;;;;;7.25;3.20;;;;;;;;;;5015036;28;20124;-77
2023/05/23 03:53:41;;;;;;;6.05;3.63;;;;;;;;;;5014867;28;20116;-76
2023/05/23 03:56:06;;;;;;;4.90;3.22;;;;;;;;;;5033981;28;20045;-80
2023/05/23 03:58:32;;;;;;;4.65;3.05;;;;;;;;;;5015691;28;20519;-79
2023/05/23 04:01:01;;;;;;;5.40;3.08;;;;;;;;;;5015551;28;20040;-80
2023/05/23 04:03:31;;;;;;;5.35;2.83;;;;;;;;;;4998773;28;20033;-79
2023/05/23 04:05:57;;;;;;;6.97;3.88;;;;;;;;;;5015660;28;20040;-79
2023/05/23 04:08:23;;;;;;;4.32;2.97;;;;;;;;;;5033279;28;20120;-79
2023/05/23 04:10:49;;;;;;;8.95;3.20;;;;;;;;;;5015882;28;20449;-79
2023/05/23 04:13:15;;;;;;;5.03;3.47;;;;;;;;;;5015053;28;20116;-80
2023/05/23 04:15:41;;;;;;;5.95;3.45;;;;;;;;;;5032742;28;20038;-79
2023/05/23 04:18:09;;;;;;;6.28;3.75;;;;;;;;;;5015262;28;20021;-79
2023/05/23 04:20:36;;;;;;;5.78;2.83;;;;;;;;;;5015411;28;20125;-79
2023/05/23 04:23:02;;;;;;;11.02;7.75;;;;;;;;;;5015075;28;20060;-79
2023/05/23 04:25:30;;;;;;;10.43;7.88;;;;;;;;;;5014497;28;20017;-79
2023/05/23 04:28:09;;;;;;;5.53;3.80;;;;;;;;;;5007764;28;20092;-79
2023/05/23 04:30:34;;;;;;;7.63;3.50;;;;;;;;;;5006436;28;20037;-79
2023/05/23 04:32:59;;;;;;;7.95;3.47;;;;;;;;;;5015664;28;20029;-79
2023/05/23 04:35:27;;;;;;;5.10;4.05;;;;;;;;;;5014913;28;20445;-79
2023/05/23 04:37:55;;;;;;;5.47;4.38;;;;;;;;;;5016683;28;20108;-80
2023/05/23 04:40:21;;;;;;;5.68;3.80;;;;;;;;;;5015786;28;20040;-80
2023/05/23 04:43:00;;;;;;;7.88;4.80;;;;;;;;;;4999958;28;20112;-78
2023/05/23 04:45:37;;;;;;;6.07;4.68;;;;;;;;;;5014873;28;20120;-80
2023/05/23 04:48:21;;;;;;;9.57;5.55;;;;;;;;;;5031484;28;20041;-80
2023/05/23 04:50:47;;;;;;;9.45;5.40;;;;;;;;;;5015270;28;20125;-80
2023/05/23 04:53:13;;;;;;;6.65;5.10;;;;;;;;;;5015858;28;20171;-80
2023/05/23 04:55:39;;;;;;;7.63;5.85;;;;;;;;;;5015381;28;20116;-80
2023/05/23 04:58:09;;;;;;;7.72;5.07;;;;;;;;;;5004887;28;20036;-80
2023/05/23 05:00:34;;;;;;;6.53;5.57;;;;;;;;;;5016196;28;20029;-80
2023/05/23 05:03:00;;;;;;;7.10;6.00;;;;;;;;;;5017924;28;20065;-81
2023/05/23 05:05:27;;;;;;;8.73;6.75;;;;;;;;;;5012500;28;20026;-79
2023/05/23 05:07:53;;;;;;;6.97;5.45;;;;;;;;;;5015376;28;20084;-80
2023/05/23 05:10:18;;;;;;;9.48;4.97;;;;;;;;;;5032480;28;20029;-80
2023/05/23 05:12:45;;;;;;;9.63;6.22;;;;;;;;;;5014601;28;20029;-80
2023/05/23 05:15:11;;;;;;;8.15;5.88;;;;;;;;;;5014031;28;20039;-80
2023/05/23 05:17:37;;;;;;;8.05;5.70;;;;;;;;;;5015816;28;20035;-80
2023/05/23 05:20:07;;;;;;;10.88;6.50;;;;;;;;;;5016361;28;20029;-81
2023/05/23 05:22:35;;;;;;;6.63;5.55;;;;;;;;;;5023726;28;20045;-80
2023/05/23 05:25:01;;;;;;;7.47;5.80;;;;;;;;;;5015685;28;20041;-80
2023/05/23 05:27:27;;;;;;;7.35;6.35;;;;;;;;;;5015737;28;20030;-80
2023/05/23 05:29:56;;;;;;;8.32;6.70;;;;;;;;;;5015592;28;20466;-80
2023/05/23 05:32:21;;;;;;;11.63;6.53;;;;;;;;;;5008234;28;20037;-80
2023/05/23 05:34:46;;;;;;;10.05;6.57;;;;;;;;;;5015146;28;20029;-80
2023/05/23 05:37:12;;;;;;;9.73;6.65;;;;;;;;;;5015517;28;20041;-80
2023/05/23 05:39:38;;;;;;;9.65;7.32;;;;;;;;;;5007740;28;20581;-80
2023/05/23 05:42:04;;;;;;;12.65;7.38;;;;;;;;;;5014598;28;20030;-80
2023/05/23 05:44:30;;;;;;;11.80;7.18;;;;;;;;;;5033494;28;20040;-80
2023/05/23 05:46:56;;;;;;;8.30;6.75;;;;;;;;;;5016110;28;20083;-80
2023/05/23 05:49:21;;;;;;;9.30;6.57;;;;;;;;;;5018390;28;20435;-80
2023/05/23 05:51:46;;;;;;;11.57;7.05;;;;;;;;;;5016697;28;20105;-80
2023/05/23 05:54:12;;;;;;;8.32;6.63;;;;;;;;;;5007143;28;20823;-80
2023/05/23 05:56:37;;;;;;;9.88;7.85;;;;;;;;;;5033299;28;20542;-80
2023/05/23 05:59:02;;;;;;;8.35;6.63;;;;;;;;;;5015037;28;20037;-80
2023/05/23 06:01:29;;;;;;;11.40;6.60;;;;;;;;;;5015594;28;20048;-80
2023/05/23 06:03:55;;;;;;;7.60;5.90;;;;;;;;;;5007251;28;20029;-80
2023/05/23 06:06:20;;;;;;;9.35;6.00;;;;;;;;;;5015590;28;20041;-80
2023/05/23 06:08:46;;;;;;;10.25;6.05;;;;;;;;;;4995371;28;20439;-80
2023/05/23 06:11:15;;;;;;;8.48;6.10;;;;;;;;;;5015213;28;20022;-80
2023/05/23 06:13:40;;;;;;;8.70;6.38;;;;;;;;;;5015669;28;20025;-80
2023/05/23 06:16:06;;;;;;;8.15;5.90;;;;;;;;;;5015798;28;20041;-80
2023/05/23 06:18:31;;;;;;;8.18;5.85;;;;;;;;;;4999308;28;20478;-80
2023/05/23 06:20:56;;;;;;;8.68;5.22;;;;;;;;;;5015294;28;20033;-80
2023/05/23 06:23:22;;;;;;;9.07;5.50;;;;;;;;;;5015261;28;20434;-80
2023/05/23 06:25:47;;;;;;;10.55;5.95;;;;;;;;;;5015204;28;20034;-80
2023/05/23 06:28:12;;;;;;;7.82;5.50;;;;;;;;;;5014185;28;20059;-80
2023/05/23 06:30:37;;;;;;;9.48;5.50;;;;;;;;;;5014856;28;20099;-80
2023/05/23 06:33:03;;;;;;;8.95;5.68;;;;;;;;;;5015121;28;20038;-80
2023/05/23 06:35:28;;;;;;;10.68;5.82;;;;;;;;;;5032732;28;20056;-80
2023/05/23 06:37:53;;;;;;;7.03;5.10;;;;;;;;;;5015323;28;20091;-80
2023/05/23 06:40:19;;;;;;;10.68;5.68;;;;;;;;;;5015238;28;20693;-80
2023/05/23 06:42:44;;;;;;;8.45;5.22;;;;;;;;;;5015094;28;20030;-81
2023/05/23 06:45:21;;;;;;;7.22;5.63;;;;;;;;;;5015630;28;20507;-80
2023/05/23 06:47:47;;;;;;;8.83;6.17;;;;;;;;;;5032658;28;20060;-79
2023/05/23 06:50:12;;;;;;;8.25;5.57;;;;;;;;;;5006794;28;20803;-80
2023/05/23 06:52:38;;;;;;;12.02;6.90;;;;;;;;;;4999245;28;20025;-80
2023/05/23 06:55:05;;;;;;;9.75;5.82;;;;;;;;;;5016224;28;20049;-80
2023/05/23 06:57:30;;;;;;;8.20;5.78;;;;;;;;;;5022821;28;20295;-80
2023/05/23 06:59:55;;;;;;;8.43;5.63;;;;;;;;;;5018127;28;20030;-80
2023/05/23 07:02:21;;;;;;;13.02;6.30;;;;;;;;;;5018370;28;20037;-80
2023/05/23 07:04:46;;;;;;;8.73;5.13;;;;;;;;;;5006285;28;20037;-80
2023/05/23 07:07:18;;;;;;;8.13;5.90;;;;;;;;;;5016575;28;20040;-77
2023/05/23 07:09:43;;;;;;;9.45;5.97;;;;;;;;;;5015435;28;20033;-76
2023/05/23 07:12:13;;;;;;;8.02;6.03;;;;;;;;;;5015661;28;20431;-78
2023/05/23 07:14:41;;;;;;;12.73;5.82;;;;;;;;;;5015535;28;20053;-77
2023/05/23 07:17:08;;;;;;;6.60;5.15;;;;;;;;;;5016939;28;20087;-77
2023/05/23 07:19:34;;;;;;;7.72;5.55;;;;;;;;;;5015299;28;20085;-77
2023/05/23 07:22:00;;;;;;;9.20;5.65;;;;;;;;;;5017737;28;20029;-77
2023/05/23 07:24:25;;;;;;;11.20;6.07;;;;;;;;;;5014697;28;20037;-78
2023/05/23 07:26:53;;;;;;;7.32;5.32;;;;;;;;;;5015298;28;20083;-78
2023/05/23 07:29:19;;;;;;;10.43;6.35;;;;;;;;;;5015301;28;20055;-77
2023/05/23 07:31:46;;;;;;;8.75;6.63;;;;;;;;;;5015089;28;20025;-78
2023/05/23 07:34:12;;;;;;;10.48;6.90;;;;;;;;;;5015384;28;20063;-77
2023/05/23 07:36:51;;;;;;;9.20;6.53;;;;;;;;;;5013546;28;20136;-78
2023/05/23 07:39:21;;;;;;;9.85;5.95;;;;;;;;;;5014960;28;20040;-78
2023/05/23 07:41:48;;;;;;;15.15;6.70;;;;;;;;;;5013237;28;20033;-78
2023/05/23 07:44:13;;;;;;;9.10;6.15;;;;;;;;;;5015486;28;20033;-78
2023/05/23 07:46:38;;;;;;;9.23;5.88;;;;;;;;;;5016592;28;20072;-78
2023/05/23 07:49:03;;;;;;;7.63;5.47;;;;;;;;;;5014604;28;20025;-76
2023/05/23 07:51:29;;;;;;;7.53;5.50;;;;;;;;;;5014890;28;20032;-78
2023/05/23 07:53:55;;;;;;;7.72;6.05;;;;;;;;;;4998552;28;20124;-78
2023/05/23 07:56:22;;;;;;;11.27;6.53;;;;;;;;;;5016550;28;20412;-77
2023/05/23 07:58:47;;;;;;;8.45;5.93;;;;;;;;;;5014334;28;20033;-78
2023/05/23 08:01:12;;;;;;;8.57;6.03;;;;;;;;;;5011341;28;20103;-78
2023/05/23 08:03:55;;;;;;;10.02;6.55;;;;;;;;;;5014623;28;20061;-78
2023/05/23 08:06:27;;;;;;;8.77;5.70;;;;;;;;;;4998859;28;20112;-78
2023/05/23 08:08:55;;;;;;;7.93;5.65;;;;;;;;;;5014228;28;20036;-77
2023/05/23 08:11:20;;;;;;;11.77;6.70;;;;;;;;;;5014097;28;20041;-78
2023/05/23 08:13:49;;;;;;;8.77;6.07;;;;;;;;;;5014383;28;20024;-78
2023/05/23 08:16:40;;;;;;;8.27;5.80;;;;;;;;;;5014059;28;20514;-78
2023/05/23 08:19:10;;;;;;;8.87;6.30;;;;;;;;;;5017731;28;20068;-78
2023/05/23 08:21:36;;;;;;;9.43;5.53;;;;;;;;;;5014278;28;20048;-78
2023/05/23 08:24:01;;;;;;;8.02;5.60;;;;;;;;;;5030704;28;20030;-78
2023/05/23 08:26:33;;;;;;;10.38;5.63;;;;;;;;;;5011425;28;20133;-78
2023/05/23 08:29:01;;;;;;;6.35;4.75;;;;;;;;;;5014167;28;20049;-79
2023/05/23 08:31:26;;;;;;;7.35;5.03;;;;;;;;;;4997047;28;20053;-78
2023/05/23 08:33:52;;;;;;;8.57;5.50;;;;;;;;;;5017153;28;20017;-79
2023/05/23 08:36:17;;;;;;;9.70;6.40;;;;;;;;;;5013876;28;20033;-79
2023/05/23 08:38:45;;;;;;;8.27;5.13;;;;;;;;;;5013742;28;20491;-78
2023/05/23 08:41:18;;;;;;;9.95;5.43;;;;;;;;;;5012695;28;20051;-79
2023/05/23 08:43:44;;;;;;;9.20;5.15;;;;;;;;;;5013679;28;20053;-79
2023/05/23 08:46:13;;;;;;;8.13;5.05;;;;;;;;;;4998066;28;20034;-78
2023/05/23 08:48:41;;;;;;;11.43;6.47;;;;;;;;;;5015027;28;20089;-80
2023/05/23 08:51:08;;;;;;;7.60;4.90;;;;;;;;;;5013171;28;20030;-80
2023/05/23 08:53:36;;;;;;;7.20;5.28;;;;;;;;;;5014490;28;20056;-80
2023/05/23 08:56:05;;;;;;;7.43;5.20;;;;;;;;;;5015822;28;20013;-80
2023/05/23 08:58:41;;;;;;;7.25;5.25;;;;;;;;;;5014728;28;20116;-80
2023/05/23 09:01:08;;;;;;;8.35;5.65;;;;;;;;;;5015199;28;20022;-79
2023/05/23 09:03:36;;;;;;;7.40;5.28;;;;;;;;;;5011890;28;20025;-79
2023/05/23 09:06:08;;;;;;;9.73;5.47;;;;;;;;;;4999877;28;20029;-80
2023/05/23 09:08:34;;;;;;;6.47;4.95;;;;;;;;;;5015100;28;20040;-79
2023/05/23 09:11:02;;;;;;;7.75;5.22;;;;;;;;;;4998436;28;20032;-79
2023/05/23 09:13:30;;;;;;;6.82;5.47;;;;;;;;;;5014214;28;20034;-79
2023/05/23 09:16:03;;;;;;;7.90;5.18;;;;;;;;;;5014536;28;20026;-79
2023/05/23 09:18:34;;;;;;;8.35;5.35;;;;;;;;;;4995391;28;20484;-79
2023/05/23 09:21:02;;;;;;;8.00;5.30;;;;;;;;;;5014648;28;20072;-79
2023/05/23 09:23:31;;;;;;;10.45;6.45;;;;;;;;;;5014848;28;20059;-79
2023/05/23 09:26:00;;;;;;;12.48;10.70;;;;;;;;;;4997928;28;20559;-79
2023/05/23 09:28:25;;;;;;;15.93;11.63;;;;;;;;;;5031311;28;20034;-80
2023/05/23 09:31:02;;;;;;;16.13;13.98;;;;;;;;;;5013339;28;20444;-80
2023/05/23 09:33:55;;;;;;;14.27;12.15;;;;;;;;;;5010100;28;20036;-79
2023/05/23 09:36:20;;;;;;;27.10;15.20;;;;;;;;;;5026801;28;20130;-80
2023/05/23 09:38:46;;;;;;;22.42;14.80;;;;;;;;;;5005303;28;20113;-77
2023/05/23 09:41:12;;;;;;;17.83;14.38;;;;;;;;;;4995707;28;20026;-78
2023/05/23 09:43:38;;;;;;;19.13;12.98;;;;;;;;;;5011230;28;20488;-77
2023/05/23 09:46:07;;;;;;;18.92;14.00;;;;;;;;;;5013545;28;20056;-78
2023/05/23 09:48:33;;;;;;;16.15;13.15;;;;;;;;;;5031072;28;20033;-78
2023/05/23 09:51:02;;;;;;;18.67;13.50;;;;;;;;;;5013366;28;20159;-77
2023/05/23 09:53:27;;;;;;;19.30;11.60;;;;;;;;;;5016389;28;20057;-78
2023/05/23 09:55:53;;;;;;;17.02;12.35;;;;;;;;;;5031048;28;20119;-78
2023/05/23 09:58:19;;;;;;;15.35;11.40;;;;;;;;;;5033760;28;20033;-77
2023/05/23 10:00:53;;;;;;;14.25;11.32;;;;;;;;;;5037735;28;20033;-77
2023/05/23 10:03:21;;;;;;;14.13;10.38;;;;;;;;;;5032093;28;20033;-78
2023/05/23 10:05:47;;;;;;;15.73;11.02;;;;;;;;;;5013970;28;20040;-78
2023/05/23 10:08:13;;;;;;;14.40;10.27;;;;;;;;;;5031520;28;20034;-78
2023/05/23 10:11:08;;;;;;;12.32;9.27;;;;;;;;;;5013058;28;20076;-78
2023/05/23 10:13:36;;;;;;;15.38;9.27;;;;;;;;;;4943397;28;20094;-77
2023/05/23 10:16:07;;;;;;;16.02;9.25;;;;;;;;;;5012982;28;20028;-78
2023/05/23 10:18:36;;;;;;;10.83;8.60;;;;;;;;;;5031323;28;20021;-78
2023/05/23 10:21:05;;;;;;;10.13;7.75;;;;;;;;;;5013220;28;20025;-78
2023/05/23 10:23:32;;;;;;;11.15;8.23;;;;;;;;;;5029928;28;20061;-78
2023/05/23 10:25:57;;;;;;;11.38;7.68;;;;;;;;;;5031016;28;20045;-77
2023/05/23 10:28:23;;;;;;;8.35;6.65;;;;;;;;;;5014006;28;20029;-78
2023/05/23 10:30:49;;;;;;;10.48;7.25;;;;;;;;;;5034820;28;20174;-77
2023/05/23 10:33:15;;;;;;;9.50;6.65;;;;;;;;;;5017030;28;20084;-77
2023/05/23 10:35:53;;;;;;;10.02;7.13;;;;;;;;;;5035906;28;20037;-78
2023/05/23 10:38:43;;;;;;;9.82;6.13;;;;;;;;;;5032699;28;20045;-78
2023/05/23 10:41:10;;;;;;;13.00;6.40;;;;;;;;;;5031664;28;20040;-77
2023/05/23 10:43:35;;;;;;;8.23;6.00;;;;;;;;;;5017567;28;20045;-78
2023/05/23 10:46:01;;;;;;;7.17;5.33;;;;;;;;;;5034906;28;20034;-78
2023/05/23 10:48:41;;;;;;;8.07;5.70;;;;;;;;;;5034727;28;20303;-78
2023/05/23 10:51:10;;;;;;;7.45;5.65;;;;;;;;;;5016732;28;20279;-78
2023/05/23 10:53:37;;;;;;;8.43;5.70;;;;;;;;;;5034410;28;20022;-78
2023/05/23 10:56:06;;;;;;;9.93;5.85;;;;;;;;;;5032917;28;20017;-78
2023/05/23 10:58:31;;;;;;;6.25;5.15;;;;;;;;;;5035338;28;20353;-79
2023/05/23 11:01:01;;;;;;;6.57;4.82;;;;;;;;;;5016400;28;20035;-75
2023/05/23 11:03:32;;;;;;;8.10;6.00;;;;;;;;;;5016126;28;20032;-76
2023/05/23 11:05:58;;;;;;;6.63;5.35;;;;;;;;;;5033309;28;20097;-76
2023/05/23 11:08:23;;;;;;;6.63;5.07;;;;;;;;;;5033423;28;20036;-74
2023/05/23 11:10:52;;;;;;;6.32;4.72;;;;;;;;;;5033351;28;20034;-76
2023/05/23 11:13:18;;;;;;;7.93;5.13;;;;;;;;;;5033500;28;20029;-76
2023/05/23 11:15:44;;;;;;;9.55;5.13;;;;;;;;;;5033702;28;20492;-76
2023/05/23 11:18:18;;;;;;;7.40;5.90;;;;;;;;;;5033561;28;20029;-76
2023/05/23 11:20:43;;;;;;;6.65;5.07;;;;;;;;;;5012763;28;20121;-75
2023/05/23 11:23:10;;;;;;;6.13;4.65;;;;;;;;;;5033426;28;20136;-76
2023/05/23 11:25:42;;;;;;;7.22;5.60;;;;;;;;;;5033388;28;20025;-75
2023/05/23 11:28:07;;;;;;;7.88;5.53;;;;;;;;;;5033301;28;20688;-76
2023/05/23 11:30:35;;;;;;;6.30;5.07;;;;;;;;;;5032954;28;20108;-75
2023/05/23 11:33:06;;;;;;;7.47;5.05;;;;;;;;;;5033212;28;20160;-76
2023/05/23 11:35:31;;;;;;;6.43;4.75;;;;;;;;;;5033354;28;20068;-76
2023/05/23 11:37:56;;;;;;;6.22;4.90;;;;;;;;;;5032933;28;20034;-75
2023/05/23 11:40:36;;;;;;;6.18;4.70;;;;;;;;;;5031807;28;20033;-75
2023/05/23 11:43:03;;;;;;;7.05;5.88;;;;;;;;;;5030397;28;20526;-75
2023/05/23 11:45:29;;;;;;;6.68;5.40;;;;;;;;;;5035183;28;20037;-77
2023/05/23 11:47:54;;;;;;;5.18;4.53;;;;;;;;;;5033430;28;20079;-77
2023/05/23 11:50:20;;;;;;;9.02;4.32;;;;;;;;;;5033207;28;20083;-76
2023/05/23 11:52:50;;;;;;;8.00;5.38;;;;;;;;;;5033252;28;20160;-77
2023/05/23 11:55:15;;;;;;;5.82;4.18;;;;;;;;;;5033601;28;20026;-77
2023/05/23 11:57:41;;;;;;;5.93;4.28;;;;;;;;;;5033277;28;20050;-77
2023/05/23 12:00:07;;;;;;;8.00;4.40;;;;;;;;;;5038453;28;20037;-76
2023/05/23 12:02:37;;;;;;;6.05;4.85;;;;;;;;;;5038715;28;20283;-77
2023/05/23 12:05:05;;;;;;;6.07;4.15;;;;;;;;;;5016965;28;20041;-77
2023/05/23 12:07:32;;;;;;;6.03;4.82;;;;;;;;;;5029740;28;20377;-77
2023/05/23 12:09:57;;;;;;;6.88;4.68;;;;;;;;;;5033052;28;20030;-77
2023/05/23 12:12:22;;;;;;;7.07;4.78;;;;;;;;;;5033367;28;20034;-76
2023/05/23 12:14:47;;;;;;;8.20;4.72;;;;;;;;;;5031207;28;20021;-77
2023/05/23 12:17:13;;;;;;;7.30;4.47;;;;;;;;;;5032821;28;20056;-77
2023/05/23 12:19:38;;;;;;;4.93;4.07;;;;;;;;;;5032664;28;20033;-77
2023/05/23 12:22:07;;;;;;;5.78;3.58;;;;;;;;;;5032934;28;20290;-77
2023/05/23 12:24:32;;;;;;;5.20;4.22;;;;;;;;;;5024090;28;20041;-77
2023/05/23 12:26:58;;;;;;;4.95;3.63;;;;;;;;;;5032419;28;20694;-77
2023/05/23 12:29:30;;;;;;;6.00;4.00;;;;;;;;;;5032118;28;20028;-77
2023/05/23 12:31:59;;;;;;;5.82;3.70;;;;;;;;;;5032478;28;20067;-77
2023/05/23 12:34:25;;;;;;;4.68;3.88;;;;;;;;;;5032521;28;20021;-77
2023/05/23 12:36:54;;;;;;;6.80;3.83;;;;;;;;;;5014285;28;20048;-77
2023/05/23 12:39:27;;;;;;;7.05;3.97;;;;;;;;;;5032018;28;20492;-76
2023/05/23 12:41:52;;;;;;;4.78;3.10;;;;;;;;;;5029182;28;20038;-77
2023/05/23 12:44:17;;;;;;;5.20;3.15;;;;;;;;;;5032246;28;20083;-77
2023/05/23 12:46:42;;;;;;;6.18;3.20;;;;;;;;;;5014175;28;20064;-77
2023/05/23 12:49:08;;;;;;;4.93;2.88;;;;;;;;;;5031546;28;20534;-76
2023/05/23 12:51:33;;;;;;;5.75;3.22;;;;;;;;;;5031661;28;20415;-76
2023/05/23 12:53:58;;;;;;;3.70;2.50;;;;;;;;;;5032045;28;20488;-77
2023/05/23 12:56:24;;;;;;;4.88;2.45;;;;;;;;;;5031949;28;20033;-76
2023/05/23 12:58:50;;;;;;;4.20;2.60;;;;;;;;;;5013794;28;20084;-76
2023/05/23 13:01:15;;;;;;;6.80;2.78;;;;;;;;;;5031799;28;20029;-76
2023/05/23 13:03:40;;;;;;;5.28;3.60;;;;;;;;;;5031830;28;20037;-77
2023/05/23 13:06:06;;;;;;;5.75;3.20;;;;;;;;;;5031659;28;20056;-76
2023/05/23 13:08:31;;;;;;;6.57;3.13;;;;;;;;;;5031486;28;20400;-74
2023/05/23 13:10:56;;;;;;;5.40;2.83;;;;;;;;;;5030899;28;20017;-74
2023/05/23 13:13:22;;;;;;;6.18;3.30;;;;;;;;;;5031493;28;20480;-74
2023/05/23 13:15:47;;;;;;;5.40;3.35;;;;;;;;;;5031496;28;20112;-74
2023/05/23 13:18:13;;;;;;;4.13;2.80;;;;;;;;;;5030969;28;20040;-74
2023/05/23 13:20:38;;;;;;;4.93;3.00;;;;;;;;;;5030934;28;20033;-74
2023/05/23 13:23:04;;;;;;;3.42;2.50;;;;;;;;;;5031376;28;20030;-74
2023/05/23 13:25:29;;;;;;;3.55;2.67;;;;;;;;;;5031401;28;20427;-74
2023/05/23 13:27:55;;;;;;;4.60;3.08;;;;;;;;;;5031212;28;20045;-74
2023/05/23 13:30:21;;;;;;;4.43;2.97;;;;;;;;;;5030916;28;20515;-74
2023/05/23 13:32:46;;;;;;;5.82;3.38;;;;;;;;;;5030909;28;20026;-74
2023/05/23 13:35:12;;;;;;;4.32;2.70;;;;;;;;;;5031122;28;20032;-73
2023/05/23 13:37:37;;;;;;;4.10;2.58;;;;;;;;;;5030831;28;20119;-74
2023/05/23 13:40:03;;;;;;;4.55;3.17;;;;;;;;;;5030759;28;20064;-74
2023/05/23 13:42:28;;;;;;;5.80;3.63;;;;;;;;;;5030969;28;20029;-74
2023/05/23 13:44:53;;;;;;;6.63;3.63;;;;;;;;;;5013473;28;20025;-74
2023/05/23 13:47:19;;;;;;;5.68;3.30;;;;;;;;;;5030978;28;20029;-74
2023/05/23 13:49:44;;;;;;;10.90;4.63;;;;;;;;;;5030605;28;20045;-74
2023/05/23 13:52:09;;;;;;;5.15;3.83;;;;;;;;;;5030879;28;20108;-75
2023/05/23 13:54:34;;;;;;;8.98;4.22;;;;;;;;;;5031182;28;20033;-74
2023/05/23 13:57:00;;;;;;;4.50;2.72;;;;;;;;;;5031107;28;20025;-74
2023/05/23 13:59:26;;;;;;;5.22;2.80;;;;;;;;;;5030693;28;20665;-74
2023/05/23 14:01:51;;;;;;;4.22;2.03;;;;;;;;;;5030833;28;20037;-75
2023/05/23 14:04:17;;;;;;;5.28;2.10;;;;;;;;;;5032949;28;20041;-75
2023/05/23 14:06:42;;;;;;;4.57;1.85;;;;;;;;;;5034843;28;20032;-75
2023/05/23 14:09:07;;;;;;;3.85;2.25;;;;;;;;;;5034586;28;20026;-75
2023/05/23 14:11:33;;;;;;;3.38;2.28;;;;;;;;;;5034351;28;20067;-74
2023/05/23 14:13:58;;;;;;;4.15;2.92;;;;;;;;;;5034518;28;20038;-74
2023/05/23 14:16:23;;;;;;;3.85;2.97;;;;;;;;;;5034631;28;20046;-74
2023/05/23 14:18:48;;;;;;;4.63;3.75;;;;;;;;;;5034190;28;20046;-73
2023/05/23 14:21:14;;;;;;;4.05;3.28;;;;;;;;;;5034525;28;20033;-74
2023/05/23 14:23:39;;;;;;;6.85;3.90;;;;;;;;;;5016725;28;20051;-74
2023/05/23 14:26:05;;;;;;;6.18;3.72;;;;;;;;;;5034481;28;20040;-73
2023/05/23 14:28:30;;;;;;;5.90;3.17;;;;;;;;;;5034299;28;20030;-74
2023/05/23 14:30:56;;;;;;;3.85;2.83;;;;;;;;;;5034029;28;20029;-74
2023/05/23 14:33:21;;;;;;;3.60;2.70;;;;;;;;;;5034296;28;20025;-74
2023/05/23 14:35:47;;;;;;;4.63;3.17;;;;;;;;;;5034456;28;20492;-74
2023/05/23 14:38:12;;;;;;;3.10;2.22;;;;;;;;;;5016447;28;20095;-74
2023/05/23 14:40:37;;;;;;;4.85;3.00;;;;;;;;;;5033870;28;20396;-74